<?xml version="1.0" encoding="UTF-8" standalone="no" ?>
<gpx xmlns="http://www.topografix.com/GPX/1/1" xmlns:xsi="http://www.w3.org/2001/XMLSchema-instance" xsi:schemaLocation="http://www.topografix.com/GPX/1/1 http://www.topografix.com/GPX/1/1/gpx.xsd" version="1.1" creator="VisuGPX - https://www.visugpx.com">
  <metadata>
    <name>Cascade des Essarts</name>
  </metadata>
  <wpt lat="45.51204" lon="2.7345">
    <ele>1047.6</ele>
    <name><![CDATA[Place de l'église ]]></name>
  </wpt>
  <wpt lat="45.51177" lon="2.73922">
    <ele>1035.9</ele>
    <name><![CDATA[Prendre le chemin à droite indiquant la cascade]]></name>
  </wpt>
  <wpt lat="45.50916" lon="2.7384">
    <ele>1053.5</ele>
    <name><![CDATA[Intersection commune de la boucle]]></name>
  </wpt>
  <wpt lat="45.50562" lon="2.73923">
    <ele>1052.8</ele>
    <name><![CDATA[À gauche vers la cascade]]></name>
  </wpt>
  <wpt lat="45.50587" lon="2.73996">
    <ele>1064.7</ele>
    <name><![CDATA[laisser le chemin de droite continuer à gauche]]></name>
  </wpt>
  <wpt lat="45.50423" lon="2.74261">
    <ele>1057.8</ele>
    <name><![CDATA[Cascade et pique-nique]]></name>
  </wpt>
  <wpt lat="45.50781" lon="2.74532">
    <ele>1090.4</ele>
    <name><![CDATA[Hameau du Mont]]></name>
  </wpt>
  <wpt lat="45.5089" lon="2.74048">
    <ele>1064.5</ele>
    <name><![CDATA[hameau du mont]]></name>
  </wpt>
  <wpt lat="45.50893" lon="2.73935">
    <ele>1062.8</ele>
    <name><![CDATA[elevage de cerfs]]></name>
  </wpt>
  <wpt lat="45.50908" lon="2.73843">
    <ele>1056.3</ele>
    <name><![CDATA[elevage de cerfs]]></name>
  </wpt>
  <wpt lat="45.51204" lon="2.73446">
    <ele>1047.8</ele>
    <name><![CDATA[Place de l'église]]></name>
  </wpt>
  <trk>
    <name><![CDATA[Cascade des Essarts]]></name>
    <trkseg>
      <trkpt lat="45.51204" lon="2.7345">
        <ele>1048</ele>
        <time>2021-01-06T16:46:02+01:00</time>
      </trkpt>
      <trkpt lat="45.51194" lon="2.73466">
        <ele>1046</ele>
        <time>2021-01-06T16:46:07+01:00</time>
      </trkpt>
      <trkpt lat="45.51186" lon="2.73525">
        <ele>1042</ele>
        <time>2021-01-06T16:46:12+01:00</time>
      </trkpt>
      <trkpt lat="45.51165" lon="2.73576">
        <ele>1037</ele>
        <time>2021-01-06T16:46:17+01:00</time>
      </trkpt>
      <trkpt lat="45.51174" lon="2.73667">
        <ele>1030</ele>
        <time>2021-01-06T16:46:22+01:00</time>
      </trkpt>
      <trkpt lat="45.51187" lon="2.73722">
        <ele>1031</ele>
        <time>2021-01-06T16:46:27+01:00</time>
      </trkpt>
      <trkpt lat="45.51177" lon="2.73922">
        <ele>1036</ele>
        <time>2021-01-06T16:46:32+01:00</time>
      </trkpt>
      <trkpt lat="45.51115" lon="2.73906">
        <ele>1034</ele>
        <time>2021-01-06T16:46:37+01:00</time>
      </trkpt>
      <trkpt lat="45.51085" lon="2.73943">
        <ele>1035</ele>
        <time>2021-01-06T16:46:42+01:00</time>
      </trkpt>
      <trkpt lat="45.51066" lon="2.73963">
        <ele>1036</ele>
        <time>2021-01-06T16:46:47+01:00</time>
      </trkpt>
      <trkpt lat="45.51025" lon="2.73959">
        <ele>1036</ele>
        <time>2021-01-06T16:46:52+01:00</time>
      </trkpt>
      <trkpt lat="45.50995" lon="2.73974">
        <ele>1038</ele>
        <time>2021-01-06T16:46:57+01:00</time>
      </trkpt>
      <trkpt lat="45.50951" lon="2.73951">
        <ele>1046</ele>
        <time>2021-01-06T16:47:02+01:00</time>
      </trkpt>
      <trkpt lat="45.50929" lon="2.73904">
        <ele>1051</ele>
        <time>2021-01-06T16:47:07+01:00</time>
      </trkpt>
      <trkpt lat="45.5091" lon="2.73894">
        <ele>1056</ele>
        <time>2021-01-06T16:47:12+01:00</time>
      </trkpt>
      <trkpt lat="45.50916" lon="2.7384">
        <ele>1053</ele>
        <time>2021-01-06T16:47:17+01:00</time>
      </trkpt>
      <trkpt lat="45.50933" lon="2.73711">
        <ele>1040</ele>
        <time>2021-01-06T16:47:22+01:00</time>
      </trkpt>
      <trkpt lat="45.50905" lon="2.73651">
        <ele>1038</ele>
        <time>2021-01-06T16:47:27+01:00</time>
      </trkpt>
      <trkpt lat="45.50862" lon="2.73608">
        <ele>1035</ele>
        <time>2021-01-06T16:47:32+01:00</time>
      </trkpt>
      <trkpt lat="45.50817" lon="2.73614">
        <ele>1037</ele>
        <time>2021-01-06T16:47:37+01:00</time>
      </trkpt>
      <trkpt lat="45.5079" lon="2.7362">
        <ele>1037</ele>
        <time>2021-01-06T16:47:42+01:00</time>
      </trkpt>
      <trkpt lat="45.5076" lon="2.73637">
        <ele>1038</ele>
        <time>2021-01-06T16:47:47+01:00</time>
      </trkpt>
      <trkpt lat="45.5071" lon="2.73631">
        <ele>1033</ele>
        <time>2021-01-06T16:47:52+01:00</time>
      </trkpt>
      <trkpt lat="45.50688" lon="2.73661">
        <ele>1035</ele>
        <time>2021-01-06T16:47:57+01:00</time>
      </trkpt>
      <trkpt lat="45.50668" lon="2.73671">
        <ele>1034</ele>
        <time>2021-01-06T16:48:02+01:00</time>
      </trkpt>
      <trkpt lat="45.50635" lon="2.73676">
        <ele>1033</ele>
        <time>2021-01-06T16:48:07+01:00</time>
      </trkpt>
      <trkpt lat="45.50607" lon="2.73708">
        <ele>1035</ele>
        <time>2021-01-06T16:48:12+01:00</time>
      </trkpt>
      <trkpt lat="45.50573" lon="2.7375">
        <ele>1037</ele>
        <time>2021-01-06T16:48:17+01:00</time>
      </trkpt>
      <trkpt lat="45.5058" lon="2.73826">
        <ele>1047</ele>
        <time>2021-01-06T16:48:22+01:00</time>
      </trkpt>
      <trkpt lat="45.50574" lon="2.73874">
        <ele>1051</ele>
        <time>2021-01-06T16:48:27+01:00</time>
      </trkpt>
      <trkpt lat="45.50562" lon="2.73923">
        <ele>1053</ele>
        <time>2021-01-06T16:48:32+01:00</time>
      </trkpt>
      <trkpt lat="45.50568" lon="2.73967">
        <ele>1057</ele>
        <time>2021-01-06T16:48:37+01:00</time>
      </trkpt>
      <trkpt lat="45.50587" lon="2.73996">
        <ele>1065</ele>
        <time>2021-01-06T16:48:42+01:00</time>
      </trkpt>
      <trkpt lat="45.50571" lon="2.74064">
        <ele>1065</ele>
        <time>2021-01-06T16:48:47+01:00</time>
      </trkpt>
      <trkpt lat="45.50518" lon="2.74193">
        <ele>1060</ele>
        <time>2021-01-06T16:48:52+01:00</time>
      </trkpt>
      <trkpt lat="45.50495" lon="2.74176">
        <ele>1053</ele>
        <time>2021-01-06T16:48:57+01:00</time>
      </trkpt>
      <trkpt lat="45.50479" lon="2.74172">
        <ele>1051</ele>
        <time>2021-01-06T16:49:02+01:00</time>
      </trkpt>
      <trkpt lat="45.50464" lon="2.74154">
        <ele>1048</ele>
        <time>2021-01-06T16:49:07+01:00</time>
      </trkpt>
      <trkpt lat="45.50451" lon="2.74147">
        <ele>1047</ele>
        <time>2021-01-06T16:49:12+01:00</time>
      </trkpt>
      <trkpt lat="45.50447" lon="2.74192">
        <ele>1051</ele>
        <time>2021-01-06T16:49:17+01:00</time>
      </trkpt>
      <trkpt lat="45.50423" lon="2.74261">
        <ele>1058</ele>
        <time>2021-01-06T16:49:22+01:00</time>
      </trkpt>
      <trkpt lat="45.50441" lon="2.74215">
        <ele>1053</ele>
        <time>2021-01-06T16:49:27+01:00</time>
      </trkpt>
      <trkpt lat="45.5045" lon="2.74146">
        <ele>1047</ele>
        <time>2021-01-06T16:49:32+01:00</time>
      </trkpt>
      <trkpt lat="45.50517" lon="2.74195">
        <ele>1060</ele>
        <time>2021-01-06T16:49:37+01:00</time>
      </trkpt>
      <trkpt lat="45.50543" lon="2.74128">
        <ele>1062</ele>
        <time>2021-01-06T16:49:42+01:00</time>
      </trkpt>
      <trkpt lat="45.50566" lon="2.7407">
        <ele>1064</ele>
        <time>2021-01-06T16:49:47+01:00</time>
      </trkpt>
      <trkpt lat="45.5061" lon="2.73934">
        <ele>1066</ele>
        <time>2021-01-06T16:49:52+01:00</time>
      </trkpt>
      <trkpt lat="45.50639" lon="2.73877">
        <ele>1067</ele>
        <time>2021-01-06T16:49:57+01:00</time>
      </trkpt>
      <trkpt lat="45.50685" lon="2.73842">
        <ele>1072</ele>
        <time>2021-01-06T16:50:02+01:00</time>
      </trkpt>
      <trkpt lat="45.50734" lon="2.73831">
        <ele>1080</ele>
        <time>2021-01-06T16:50:07+01:00</time>
      </trkpt>
      <trkpt lat="45.50782" lon="2.73856">
        <ele>1086</ele>
        <time>2021-01-06T16:50:12+01:00</time>
      </trkpt>
      <trkpt lat="45.50751" lon="2.74084">
        <ele>1095</ele>
        <time>2021-01-06T16:50:17+01:00</time>
      </trkpt>
      <trkpt lat="45.50795" lon="2.74122">
        <ele>1093</ele>
        <time>2021-01-06T16:50:22+01:00</time>
      </trkpt>
      <trkpt lat="45.50796" lon="2.74199">
        <ele>1091</ele>
        <time>2021-01-06T16:50:27+01:00</time>
      </trkpt>
      <trkpt lat="45.50796" lon="2.74313">
        <ele>1089</ele>
        <time>2021-01-06T16:50:32+01:00</time>
      </trkpt>
      <trkpt lat="45.5078" lon="2.74453">
        <ele>1090</ele>
        <time>2021-01-06T16:50:37+01:00</time>
      </trkpt>
      <trkpt lat="45.50781" lon="2.74532">
        <ele>1090</ele>
        <time>2021-01-06T16:50:42+01:00</time>
      </trkpt>
      <trkpt lat="45.50811" lon="2.74525">
        <ele>1085</ele>
        <time>2021-01-06T16:50:47+01:00</time>
      </trkpt>
      <trkpt lat="45.50824" lon="2.74549">
        <ele>1083</ele>
        <time>2021-01-06T16:50:52+01:00</time>
      </trkpt>
      <trkpt lat="45.50877" lon="2.74217">
        <ele>1071</ele>
        <time>2021-01-06T16:50:57+01:00</time>
      </trkpt>
      <trkpt lat="45.5089" lon="2.74048">
        <ele>1064</ele>
        <time>2021-01-06T16:51:02+01:00</time>
      </trkpt>
      <trkpt lat="45.50893" lon="2.73935">
        <ele>1063</ele>
        <time>2021-01-06T16:51:07+01:00</time>
      </trkpt>
      <trkpt lat="45.50892" lon="2.73893">
        <ele>1063</ele>
        <time>2021-01-06T16:51:12+01:00</time>
      </trkpt>
      <trkpt lat="45.50908" lon="2.73843">
        <ele>1056</ele>
        <time>2021-01-06T16:51:17+01:00</time>
      </trkpt>
      <trkpt lat="45.50916" lon="2.73839">
        <ele>1053</ele>
        <time>2021-01-06T16:51:22+01:00</time>
      </trkpt>
      <trkpt lat="45.5091" lon="2.73893">
        <ele>1056</ele>
        <time>2021-01-06T16:51:27+01:00</time>
      </trkpt>
      <trkpt lat="45.50928" lon="2.73906">
        <ele>1051</ele>
        <time>2021-01-06T16:51:32+01:00</time>
      </trkpt>
      <trkpt lat="45.50949" lon="2.73953">
        <ele>1046</ele>
        <time>2021-01-06T16:51:37+01:00</time>
      </trkpt>
      <trkpt lat="45.50992" lon="2.73974">
        <ele>1039</ele>
        <time>2021-01-06T16:51:42+01:00</time>
      </trkpt>
      <trkpt lat="45.51023" lon="2.73957">
        <ele>1036</ele>
        <time>2021-01-06T16:51:47+01:00</time>
      </trkpt>
      <trkpt lat="45.51062" lon="2.73962">
        <ele>1036</ele>
        <time>2021-01-06T16:51:52+01:00</time>
      </trkpt>
      <trkpt lat="45.51083" lon="2.73947">
        <ele>1035</ele>
        <time>2021-01-06T16:51:57+01:00</time>
      </trkpt>
      <trkpt lat="45.51112" lon="2.73908">
        <ele>1034</ele>
        <time>2021-01-06T16:52:02+01:00</time>
      </trkpt>
      <trkpt lat="45.51177" lon="2.73926">
        <ele>1036</ele>
        <time>2021-01-06T16:52:07+01:00</time>
      </trkpt>
      <trkpt lat="45.51185" lon="2.73809">
        <ele>1032</ele>
        <time>2021-01-06T16:52:12+01:00</time>
      </trkpt>
      <trkpt lat="45.51183" lon="2.73696">
        <ele>1030</ele>
        <time>2021-01-06T16:52:17+01:00</time>
      </trkpt>
      <trkpt lat="45.51173" lon="2.73642">
        <ele>1032</ele>
        <time>2021-01-06T16:52:22+01:00</time>
      </trkpt>
      <trkpt lat="45.51184" lon="2.73639">
        <ele>1032</ele>
        <time>2021-01-06T16:52:27+01:00</time>
      </trkpt>
      <trkpt lat="45.5118" lon="2.73612">
        <ele>1034</ele>
        <time>2021-01-06T16:52:32+01:00</time>
      </trkpt>
      <trkpt lat="45.5119" lon="2.73588">
        <ele>1036</ele>
        <time>2021-01-06T16:52:37+01:00</time>
      </trkpt>
      <trkpt lat="45.51196" lon="2.73552">
        <ele>1040</ele>
        <time>2021-01-06T16:52:42+01:00</time>
      </trkpt>
      <trkpt lat="45.51218" lon="2.73499">
        <ele>1047</ele>
        <time>2021-01-06T16:52:47+01:00</time>
      </trkpt>
      <trkpt lat="45.51218" lon="2.73466">
        <ele>1048</ele>
        <time>2021-01-06T16:52:52+01:00</time>
      </trkpt>
      <trkpt lat="45.51232" lon="2.73471">
        <ele>1049</ele>
        <time>2021-01-06T16:52:57+01:00</time>
      </trkpt>
      <trkpt lat="45.51232" lon="2.73472">
        <ele>1049</ele>
        <time>2021-01-06T16:53:02+01:00</time>
      </trkpt>
      <trkpt lat="45.51221" lon="2.73458">
        <ele>1049</ele>
        <time>2021-01-06T16:53:07+01:00</time>
      </trkpt>
      <trkpt lat="45.51204" lon="2.73446">
        <ele>1048</ele>
        <time>2021-01-06T16:53:12+01:00</time>
      </trkpt>
    </trkseg>
  </trk>
</gpx>